TCMO2: Little River Nr Tecumseh, OK

Data processed at Tue Jun 18 2019 23:50


All information presented herein is the property of the government of the United States of America and may be revised or deleted at any time without prior notice.
Dissemination of this information without the expressed written consent of the Public Affairs Office, Tulsa District U.S. Army Corps of Engineers is strictly prohibited.
These data are gathered electronically and, as presented, have not undergone any form of quality control. These data are not guaranteed to be valid or correct.
Go to home page.
Go to station list.
Go to home page.

Upstream stations:

Downstream station:
Previous Day
Next Day
Current Day
    
SHEF ID:       TCMO2     Little River near Tecumseh, OK
STATION TYPE:  
Regulating: Stage =    11.00, Flow =     2132

                STAGE  RIV-FLOW  BAT-LOAD
                   ft       cfs      volt
              Ccp-Rev   Ccp-Rev   Ccp-Rev
(US/Central)
06/18 00:00      7.87       817     12.65
06/18 01:00      7.86       813     12.65
06/18 02:00      7.84       807     12.57
06/18 03:00      7.83       803     12.57
06/18 04:00      7.84       807     12.57
06/18 05:00      7.82       800     12.57
06/18 06:00      7.82       800     12.57
06/18 07:00      7.87       817     12.57
06/18 08:00      7.85       810     12.57
06/18 09:00      7.86       813     12.65
06/18 10:00      7.84       807     12.65
06/18 11:00      7.86       813     12.73
06/18 12:00      7.84       807     13.05
06/18 13:00      7.78       786     13.05
06/18 14:00      7.80       793     13.05
06/18 15:00      7.83       803     12.97
06/18 16:00      7.79       790     12.97
06/18 17:00      7.78       786     13.05
06/18 18:00      7.80       793     13.05
06/18 19:00      7.80       793     13.05
06/18 20:00      7.79       790     12.89
06/18 21:00      7.79       790     12.73
06/18 22:00      7.80       793     12.65
06/18 23:00      7.78       786     12.65